sensor_id;sensor_type;location;lat;lon;timestamp;temperature;humidity
41756;DHT22;27435;48.480;9.258;2023-03-14T00:00:16;9.10;99.00
41756;DHT22;27435;48.480;9.258;2023-03-14T00:02:41;9.10;99.00
41756;DHT22;27435;48.480;9.258;2023-03-14T00:05:07;9.10;99.00
41756;DHT22;27435;48.480;9.258;2023-03-14T00:07:38;9.10;99.00
41756;DHT22;27435;48.480;9.258;2023-03-14T00:10:06;9.10;99.00
41756;DHT22;27435;48.480;9.258;2023-03-14T00:12:32;9.10;99.00
41756;DHT22;27435;48.480;9.258;2023-03-14T00:14:58;9.10;99.00
41756;DHT22;27435;48.480;9.258;2023-03-14T00:17:26;9.10;99.00
41756;DHT22;27435;48.480;9.258;2023-03-14T00:19:52;9.00;99.00
41756;DHT22;27435;48.480;9.258;2023-03-14T00:22:19;9.00;99.00
41756;DHT22;27435;48.480;9.258;2023-03-14T00:24:45;8.90;99.00
41756;DHT22;27435;48.480;9.258;2023-03-14T00:27:11;8.90;99.00
41756;DHT22;27435;48.480;9.258;2023-03-14T00:29:36;8.80;99.00
41756;DHT22;27435;48.480;9.258;2023-03-14T00:32:02;8.90;99.00
41756;DHT22;27435;48.480;9.258;2023-03-14T00:34:37;8.90;99.00
41756;DHT22;27435;48.480;9.258;2023-03-14T00:37:03;8.90;99.00
41756;DHT22;27435;48.480;9.258;2023-03-14T00:39:28;8.90;99.00
41756;DHT22;27435;48.480;9.258;2023-03-14T00:41:54;8.90;99.00
41756;DHT22;27435;48.480;9.258;2023-03-14T00:44:19;8.90;99.00
41756;DHT22;27435;48.480;9.258;2023-03-14T00:46:45;8.90;99.00
41756;DHT22;27435;48.480;9.258;2023-03-14T00:49:10;9.00;99.00
41756;DHT22;27435;48.480;9.258;2023-03-14T00:51:36;9.00;99.00
41756;DHT22;27435;48.480;9.258;2023-03-14T00:54:02;9.00;99.00
41756;DHT22;27435;48.480;9.258;2023-03-14T00:56:27;9.00;99.00
41756;DHT22;27435;48.480;9.258;2023-03-14T00:58:54;9.00;99.00
41756;DHT22;27435;48.480;9.258;2023-03-14T01:01:20;9.10;99.00
41756;DHT22;27435;48.480;9.258;2023-03-14T01:03:46;9.10;99.00
41756;DHT22;27435;48.480;9.258;2023-03-14T01:06:14;9.30;99.00
41756;DHT22;27435;48.480;9.258;2023-03-14T01:08:40;9.30;99.00
41756;DHT22;27435;48.480;9.258;2023-03-14T01:11:12;9.30;99.00
41756;DHT22;27435;48.480;9.258;2023-03-14T01:13:38;9.30;99.00
41756;DHT22;27435;48.480;9.258;2023-03-14T01:16:05;9.30;99.00
41756;DHT22;27435;48.480;9.258;2023-03-14T01:18:32;9.30;99.00
41756;DHT22;27435;48.480;9.258;2023-03-14T01:20:58;9.30;99.00
41756;DHT22;27435;48.480;9.258;2023-03-14T01:23:24;9.40;99.00
41756;DHT22;27435;48.480;9.258;2023-03-14T01:25:49;9.40;99.00
41756;DHT22;27435;48.480;9.258;2023-03-14T01:28:15;9.40;99.00
41756;DHT22;27435;48.480;9.258;2023-03-14T01:30:41;9.40;99.00
41756;DHT22;27435;48.480;9.258;2023-03-14T01:33:07;9.40;99.00
41756;DHT22;27435;48.480;9.258;2023-03-14T01:35:32;9.50;99.00
41756;DHT22;27435;48.480;9.258;2023-03-14T01:37:58;9.40;99.00
41756;DHT22;27435;48.480;9.258;2023-03-14T01:40:23;9.40;99.00
41756;DHT22;27435;48.480;9.258;2023-03-14T01:43:05;9.40;99.00
41756;DHT22;27435;48.480;9.258;2023-03-14T01:48:35;9.40;99.00
41756;DHT22;27435;48.480;9.258;2023-03-14T01:51:01;9.40;99.00
41756;DHT22;27435;48.480;9.258;2023-03-14T01:53:29;9.40;99.00
41756;DHT22;27435;48.480;9.258;2023-03-14T01:55:55;9.40;99.00
41756;DHT22;27435;48.480;9.258;2023-03-14T01:58:25;9.40;99.00
41756;DHT22;27435;48.480;9.258;2023-03-14T02:00:53;9.40;99.00
41756;DHT22;27435;48.480;9.258;2023-03-14T02:03:20;9.40;99.00
41756;DHT22;27435;48.480;9.258;2023-03-14T02:05:48;9.30;99.00
41756;DHT22;27435;48.480;9.258;2023-03-14T02:08:17;9.30;99.00
41756;DHT22;27435;48.480;9.258;2023-03-14T02:10:53;9.40;99.00
41756;DHT22;27435;48.480;9.258;2023-03-14T02:13:20;9.50;99.00
41756;DHT22;27435;48.480;9.258;2023-03-14T02:15:47;9.50;99.00
41756;DHT22;27435;48.480;9.258;2023-03-14T02:18:14;9.60;99.00
41756;DHT22;27435;48.480;9.258;2023-03-14T02:23:09;9.70;99.00
41756;DHT22;27435;48.480;9.258;2023-03-14T02:25:51;9.80;99.00
41756;DHT22;27435;48.480;9.258;2023-03-14T02:28:21;9.70;99.00
41756;DHT22;27435;48.480;9.258;2023-03-14T02:30:47;9.70;99.00
41756;DHT22;27435;48.480;9.258;2023-03-14T02:33:17;9.70;99.00
41756;DHT22;27435;48.480;9.258;2023-03-14T02:36:05;9.70;99.00
41756;DHT22;27435;48.480;9.258;2023-03-14T02:38:50;9.70;99.00
41756;DHT22;27435;48.480;9.258;2023-03-14T02:41:18;9.70;99.00
41756;DHT22;27435;48.480;9.258;2023-03-14T02:43:44;9.70;99.00
41756;DHT22;27435;48.480;9.258;2023-03-14T02:46:13;9.70;99.00
41756;DHT22;27435;48.480;9.258;2023-03-14T02:49:02;9.70;99.00
41756;DHT22;27435;48.480;9.258;2023-03-14T02:51:28;9.60;99.00
41756;DHT22;27435;48.480;9.258;2023-03-14T02:53:54;9.60;99.00
41756;DHT22;27435;48.480;9.258;2023-03-14T02:56:20;9.60;99.00
41756;DHT22;27435;48.480;9.258;2023-03-14T02:58:46;9.60;99.00
41756;DHT22;27435;48.480;9.258;2023-03-14T03:01:12;9.60;99.00
41756;DHT22;27435;48.480;9.258;2023-03-14T03:03:37;9.60;99.00
41756;DHT22;27435;48.480;9.258;2023-03-14T03:06:03;9.60;99.00
41756;DHT22;27435;48.480;9.258;2023-03-14T03:08:29;9.60;99.00
41756;DHT22;27435;48.480;9.258;2023-03-14T03:10:56;9.60;99.00
41756;DHT22;27435;48.480;9.258;2023-03-14T03:13:21;9.70;99.00
41756;DHT22;27435;48.480;9.258;2023-03-14T03:15:47;9.70;99.00
41756;DHT22;27435;48.480;9.258;2023-03-14T03:18:13;9.70;99.00
41756;DHT22;27435;48.480;9.258;2023-03-14T03:20:38;9.70;99.00
41756;DHT22;27435;48.480;9.258;2023-03-14T03:23:04;9.70;99.00
41756;DHT22;27435;48.480;9.258;2023-03-14T03:25:30;9.70;99.00
41756;DHT22;27435;48.480;9.258;2023-03-14T03:27:57;9.60;99.00
41756;DHT22;27435;48.480;9.258;2023-03-14T03:30:22;9.50;99.00
41756;DHT22;27435;48.480;9.258;2023-03-14T03:32:48;9.50;99.00
41756;DHT22;27435;48.480;9.258;2023-03-14T03:35:14;9.50;99.00
41756;DHT22;27435;48.480;9.258;2023-03-14T03:37:40;9.50;99.00
41756;DHT22;27435;48.480;9.258;2023-03-14T03:40:06;9.40;99.00
41756;DHT22;27435;48.480;9.258;2023-03-14T03:42:33;9.40;99.00
41756;DHT22;27435;48.480;9.258;2023-03-14T03:45:00;9.40;99.00
41756;DHT22;27435;48.480;9.258;2023-03-14T03:47:26;9.30;99.00
41756;DHT22;27435;48.480;9.258;2023-03-14T03:49:51;9.30;99.00
41756;DHT22;27435;48.480;9.258;2023-03-14T03:52:17;9.30;99.00
41756;DHT22;27435;48.480;9.258;2023-03-14T03:54:43;9.30;99.00
41756;DHT22;27435;48.480;9.258;2023-03-14T03:57:09;9.30;99.00
41756;DHT22;27435;48.480;9.258;2023-03-14T03:59:34;9.20;99.00
41756;DHT22;27435;48.480;9.258;2023-03-14T04:02:00;9.20;99.00
41756;DHT22;27435;48.480;9.258;2023-03-14T04:04:26;9.20;99.00
41756;DHT22;27435;48.480;9.258;2023-03-14T04:06:51;9.20;99.00
41756;DHT22;27435;48.480;9.258;2023-03-14T04:09:17;9.20;99.00
41756;DHT22;27435;48.480;9.258;2023-03-14T04:11:43;9.10;99.00
41756;DHT22;27435;48.480;9.258;2023-03-14T04:14:09;9.10;99.00
41756;DHT22;27435;48.480;9.258;2023-03-14T04:16:34;9.10;99.00
41756;DHT22;27435;48.480;9.258;2023-03-14T04:19:01;9.10;99.00
41756;DHT22;27435;48.480;9.258;2023-03-14T04:21:27;9.10;99.00
41756;DHT22;27435;48.480;9.258;2023-03-14T04:23:52;9.20;99.00
41756;DHT22;27435;48.480;9.258;2023-03-14T04:26:18;9.20;99.00
41756;DHT22;27435;48.480;9.258;2023-03-14T04:28:43;9.20;99.00
41756;DHT22;27435;48.480;9.258;2023-03-14T04:31:11;9.20;98.70
41756;DHT22;27435;48.480;9.258;2023-03-14T04:33:37;9.20;98.00
41756;DHT22;27435;48.480;9.258;2023-03-14T04:36:04;9.20;98.10
41756;DHT22;27435;48.480;9.258;2023-03-14T04:38:30;9.20;98.10
41756;DHT22;27435;48.480;9.258;2023-03-14T04:40:55;9.10;97.40
41756;DHT22;27435;48.480;9.258;2023-03-14T04:43:21;9.20;96.70
41756;DHT22;27435;48.480;9.258;2023-03-14T04:45:47;9.20;96.50
41756;DHT22;27435;48.480;9.258;2023-03-14T04:48:12;9.20;95.80
41756;DHT22;27435;48.480;9.258;2023-03-14T04:50:38;9.20;95.90
41756;DHT22;27435;48.480;9.258;2023-03-14T04:53:05;9.20;95.90
41756;DHT22;27435;48.480;9.258;2023-03-14T04:55:31;9.20;95.90
41756;DHT22;27435;48.480;9.258;2023-03-14T04:57:58;9.10;95.70
41756;DHT22;27435;48.480;9.258;2023-03-14T05:00:24;9.10;95.60
41756;DHT22;27435;48.480;9.258;2023-03-14T05:02:50;9.10;95.60
41756;DHT22;27435;48.480;9.258;2023-03-14T05:05:16;9.10;95.50
41756;DHT22;27435;48.480;9.258;2023-03-14T05:07:42;9.20;95.00
41756;DHT22;27435;48.480;9.258;2023-03-14T05:10:08;9.20;95.00
41756;DHT22;27435;48.480;9.258;2023-03-14T05:12:34;9.20;95.00
41756;DHT22;27435;48.480;9.258;2023-03-14T05:15:00;9.20;95.10
41756;DHT22;27435;48.480;9.258;2023-03-14T05:17:26;9.20;94.80
41756;DHT22;27435;48.480;9.258;2023-03-14T05:19:51;9.20;95.20
41756;DHT22;27435;48.480;9.258;2023-03-14T05:22:17;9.20;95.20
41756;DHT22;27435;48.480;9.258;2023-03-14T05:24:43;9.20;94.60
41756;DHT22;27435;48.480;9.258;2023-03-14T05:27:08;9.20;95.60
41756;DHT22;27435;48.480;9.258;2023-03-14T05:29:34;9.20;94.70
41756;DHT22;27435;48.480;9.258;2023-03-14T05:31:59;9.20;94.50
41756;DHT22;27435;48.480;9.258;2023-03-14T05:34:25;9.30;94.70
41756;DHT22;27435;48.480;9.258;2023-03-14T05:36:51;9.20;94.90
41756;DHT22;27435;48.480;9.258;2023-03-14T05:39:18;9.20;94.90
41756;DHT22;27435;48.480;9.258;2023-03-14T05:41:43;9.20;94.40
41756;DHT22;27435;48.480;9.258;2023-03-14T05:44:09;9.20;94.70
41756;DHT22;27435;48.480;9.258;2023-03-14T05:46:34;9.20;94.30
41756;DHT22;27435;48.480;9.258;2023-03-14T05:49:00;9.30;93.90
41756;DHT22;27435;48.480;9.258;2023-03-14T05:51:26;9.30;93.40
41756;DHT22;27435;48.480;9.258;2023-03-14T05:53:52;9.30;93.70
41756;DHT22;27435;48.480;9.258;2023-03-14T05:56:18;9.30;93.50
41756;DHT22;27435;48.480;9.258;2023-03-14T05:58:43;9.30;94.30
41756;DHT22;27435;48.480;9.258;2023-03-14T06:01:09;9.30;94.40
41756;DHT22;27435;48.480;9.258;2023-03-14T06:03:35;9.20;94.60
41756;DHT22;27435;48.480;9.258;2023-03-14T06:06:01;9.20;94.70
41756;DHT22;27435;48.480;9.258;2023-03-14T06:08:29;9.10;94.90
41756;DHT22;27435;48.480;9.258;2023-03-14T06:10:54;9.10;94.70
41756;DHT22;27435;48.480;9.258;2023-03-14T06:13:21;9.10;94.80
41756;DHT22;27435;48.480;9.258;2023-03-14T06:15:47;9.10;93.60
41756;DHT22;27435;48.480;9.258;2023-03-14T06:18:13;9.20;94.00
41756;DHT22;27435;48.480;9.258;2023-03-14T06:20:39;9.30;93.30
41756;DHT22;27435;48.480;9.258;2023-03-14T06:23:06;9.30;93.30
41756;DHT22;27435;48.480;9.258;2023-03-14T06:25:33;9.30;93.70
41756;DHT22;27435;48.480;9.258;2023-03-14T06:27:58;9.30;93.50
41756;DHT22;27435;48.480;9.258;2023-03-14T06:30:24;9.30;93.40
41756;DHT22;27435;48.480;9.258;2023-03-14T06:32:50;9.30;93.50
41756;DHT22;27435;48.480;9.258;2023-03-14T06:35:15;9.30;93.50
41756;DHT22;27435;48.480;9.258;2023-03-14T06:37:41;9.40;92.80
41756;DHT22;27435;48.480;9.258;2023-03-14T06:40:11;9.50;91.90
41756;DHT22;27435;48.480;9.258;2023-03-14T06:42:44;9.60;92.30
41756;DHT22;27435;48.480;9.258;2023-03-14T06:45:10;9.80;91.80
41756;DHT22;27435;48.480;9.258;2023-03-14T06:47:35;9.80;91.00
41756;DHT22;27435;48.480;9.258;2023-03-14T06:50:01;9.90;90.60
41756;DHT22;27435;48.480;9.258;2023-03-14T06:52:27;10.00;90.60
41756;DHT22;27435;48.480;9.258;2023-03-14T06:54:52;10.00;90.40
41756;DHT22;27435;48.480;9.258;2023-03-14T06:57:18;10.00;90.60
41756;DHT22;27435;48.480;9.258;2023-03-14T06:59:43;10.00;89.90
41756;DHT22;27435;48.480;9.258;2023-03-14T07:02:10;10.00;90.50
41756;DHT22;27435;48.480;9.258;2023-03-14T07:04:36;10.00;89.80
41756;DHT22;27435;48.480;9.258;2023-03-14T07:07:02;10.00;90.30
41756;DHT22;27435;48.480;9.258;2023-03-14T07:09:28;10.00;89.90
41756;DHT22;27435;48.480;9.258;2023-03-14T07:11:53;10.00;89.70
41756;DHT22;27435;48.480;9.258;2023-03-14T07:14:19;10.10;89.30
41756;DHT22;27435;48.480;9.258;2023-03-14T07:16:45;10.30;88.80
41756;DHT22;27435;48.480;9.258;2023-03-14T07:19:10;10.40;88.30
41756;DHT22;27435;48.480;9.258;2023-03-14T07:21:36;10.40;88.00
41756;DHT22;27435;48.480;9.258;2023-03-14T07:24:02;10.50;88.50
41756;DHT22;27435;48.480;9.258;2023-03-14T07:26:30;10.30;88.40
41756;DHT22;27435;48.480;9.258;2023-03-14T07:28:56;10.20;88.20
41756;DHT22;27435;48.480;9.258;2023-03-14T07:31:24;10.20;88.80
41756;DHT22;27435;48.480;9.258;2023-03-14T07:33:50;10.20;88.90
41756;DHT22;27435;48.480;9.258;2023-03-14T07:36:16;10.10;89.30
41756;DHT22;27435;48.480;9.258;2023-03-14T07:38:42;10.10;88.90
41756;DHT22;27435;48.480;9.258;2023-03-14T07:41:08;10.10;89.00
41756;DHT22;27435;48.480;9.258;2023-03-14T07:43:34;10.30;88.60
41756;DHT22;27435;48.480;9.258;2023-03-14T07:46:00;10.50;87.30
41756;DHT22;27435;48.480;9.258;2023-03-14T07:48:26;10.60;86.60
41756;DHT22;27435;48.480;9.258;2023-03-14T07:50:53;10.80;86.80
41756;DHT22;27435;48.480;9.258;2023-03-14T07:53:19;10.70;86.10
41756;DHT22;27435;48.480;9.258;2023-03-14T07:55:47;10.70;86.30
41756;DHT22;27435;48.480;9.258;2023-03-14T07:58:13;10.80;86.00
41756;DHT22;27435;48.480;9.258;2023-03-14T08:00:39;10.90;86.20
41756;DHT22;27435;48.480;9.258;2023-03-14T08:03:05;11.10;85.40
41756;DHT22;27435;48.480;9.258;2023-03-14T08:05:37;11.30;84.50
41756;DHT22;27435;48.480;9.258;2023-03-14T08:08:04;11.30;83.60
41756;DHT22;27435;48.480;9.258;2023-03-14T08:10:32;11.20;83.70
41756;DHT22;27435;48.480;9.258;2023-03-14T08:12:59;11.30;84.30
41756;DHT22;27435;48.480;9.258;2023-03-14T08:15:26;11.40;83.60
41756;DHT22;27435;48.480;9.258;2023-03-14T08:17:52;11.50;83.30
41756;DHT22;27435;48.480;9.258;2023-03-14T08:20:20;11.70;83.00
41756;DHT22;27435;48.480;9.258;2023-03-14T08:22:46;11.70;81.80
41756;DHT22;27435;48.480;9.258;2023-03-14T08:25:11;11.50;82.40
41756;DHT22;27435;48.480;9.258;2023-03-14T08:27:37;11.50;82.10
41756;DHT22;27435;48.480;9.258;2023-03-14T08:30:05;11.50;81.70
41756;DHT22;27435;48.480;9.258;2023-03-14T08:32:34;11.50;82.30
41756;DHT22;27435;48.480;9.258;2023-03-14T08:35:00;11.50;81.60
41756;DHT22;27435;48.480;9.258;2023-03-14T08:37:25;11.50;81.90
41756;DHT22;27435;48.480;9.258;2023-03-14T08:39:51;11.60;81.60
41756;DHT22;27435;48.480;9.258;2023-03-14T08:42:18;11.70;81.60
41756;DHT22;27435;48.480;9.258;2023-03-14T08:44:43;11.80;81.50
41756;DHT22;27435;48.480;9.258;2023-03-14T08:47:09;11.70;81.50
41756;DHT22;27435;48.480;9.258;2023-03-14T08:49:35;11.50;81.10
41756;DHT22;27435;48.480;9.258;2023-03-14T08:52:04;11.40;82.40
41756;DHT22;27435;48.480;9.258;2023-03-14T08:54:30;11.60;82.10
41756;DHT22;27435;48.480;9.258;2023-03-14T08:56:57;11.80;81.70
41756;DHT22;27435;48.480;9.258;2023-03-14T08:59:23;11.90;81.70
41756;DHT22;27435;48.480;9.258;2023-03-14T09:01:49;12.10;81.60
41756;DHT22;27435;48.480;9.258;2023-03-14T09:04:14;12.20;80.90
41756;DHT22;27435;48.480;9.258;2023-03-14T09:06:40;12.50;80.80
41756;DHT22;27435;48.480;9.258;2023-03-14T09:09:06;12.50;79.90
41756;DHT22;27435;48.480;9.258;2023-03-14T09:11:32;12.40;79.90
41756;DHT22;27435;48.480;9.258;2023-03-14T09:13:58;12.50;79.50
41756;DHT22;27435;48.480;9.258;2023-03-14T09:16:24;12.50;80.40
41756;DHT22;27435;48.480;9.258;2023-03-14T09:18:50;12.50;80.00
41756;DHT22;27435;48.480;9.258;2023-03-14T09:21:15;12.50;79.80
41756;DHT22;27435;48.480;9.258;2023-03-14T09:23:41;12.40;81.70
41756;DHT22;27435;48.480;9.258;2023-03-14T09:26:07;12.40;82.80
41756;DHT22;27435;48.480;9.258;2023-03-14T09:28:34;12.30;83.40
41756;DHT22;27435;48.480;9.258;2023-03-14T09:31:10;12.00;86.70
41756;DHT22;27435;48.480;9.258;2023-03-14T09:33:36;11.70;88.40
41756;DHT22;27435;48.480;9.258;2023-03-14T09:36:03;11.90;88.10
41756;DHT22;27435;48.480;9.258;2023-03-14T09:38:29;11.90;88.50
41756;DHT22;27435;48.480;9.258;2023-03-14T09:40:55;11.70;87.80
41756;DHT22;27435;48.480;9.258;2023-03-14T09:43:24;11.60;87.70
41756;DHT22;27435;48.480;9.258;2023-03-14T09:45:51;11.70;88.80
41756;DHT22;27435;48.480;9.258;2023-03-14T09:48:21;11.90;89.50
41756;DHT22;27435;48.480;9.258;2023-03-14T09:50:51;12.20;88.40
41756;DHT22;27435;48.480;9.258;2023-03-14T09:53:22;12.40;88.90
41756;DHT22;27435;48.480;9.258;2023-03-14T09:55:50;12.50;88.20
41756;DHT22;27435;48.480;9.258;2023-03-14T09:58:22;12.30;87.90
41756;DHT22;27435;48.480;9.258;2023-03-14T10:00:54;12.20;90.60
41756;DHT22;27435;48.480;9.258;2023-03-14T10:03:32;11.90;90.70
41756;DHT22;27435;48.480;9.258;2023-03-14T10:05:58;11.70;92.00
41756;DHT22;27435;48.480;9.258;2023-03-14T10:08:24;11.60;92.50
41756;DHT22;27435;48.480;9.258;2023-03-14T10:10:50;11.70;91.30
41756;DHT22;27435;48.480;9.258;2023-03-14T10:18:18;11.90;90.60
41756;DHT22;27435;48.480;9.258;2023-03-14T10:20:48;12.10;89.10
41756;DHT22;27435;48.480;9.258;2023-03-14T10:29:13;12.40;86.10
41756;DHT22;27435;48.480;9.258;2023-03-14T10:34:38;12.30;85.50
41756;DHT22;27435;48.480;9.258;2023-03-14T10:37:18;12.10;84.70
41756;DHT22;27435;48.480;9.258;2023-03-14T10:39:49;11.90;85.20
41756;DHT22;27435;48.480;9.258;2023-03-14T10:42:28;11.80;85.50
41756;DHT22;27435;48.480;9.258;2023-03-14T10:44:57;11.90;85.30
41756;DHT22;27435;48.480;9.258;2023-03-14T10:47:25;11.90;85.10
41756;DHT22;27435;48.480;9.258;2023-03-14T10:49:55;11.90;84.90
41756;DHT22;27435;48.480;9.258;2023-03-14T10:52:28;12.00;85.40
41756;DHT22;27435;48.480;9.258;2023-03-14T10:55:00;11.90;85.40
41756;DHT22;27435;48.480;9.258;2023-03-14T10:57:26;11.90;85.10
41756;DHT22;27435;48.480;9.258;2023-03-14T10:59:53;12.00;85.30
41756;DHT22;27435;48.480;9.258;2023-03-14T11:07:43;11.80;87.80
41756;DHT22;27435;48.480;9.258;2023-03-14T11:10:33;11.60;90.50
41756;DHT22;27435;48.480;9.258;2023-03-14T11:16:09;11.50;93.10
41756;DHT22;27435;48.480;9.258;2023-03-14T11:33:03;10.40;99.00
41756;DHT22;27435;48.480;9.258;2023-03-14T11:35:37;10.30;99.00
41756;DHT22;27435;48.480;9.258;2023-03-14T11:41:04;10.30;99.00
41756;DHT22;27435;48.480;9.258;2023-03-14T11:43:39;10.30;99.00
41756;DHT22;27435;48.480;9.258;2023-03-14T11:46:18;10.40;99.00
41756;DHT22;27435;48.480;9.258;2023-03-14T11:48:57;10.10;99.00
41756;DHT22;27435;48.480;9.258;2023-03-14T11:51:46;10.00;99.00
41756;DHT22;27435;48.480;9.258;2023-03-14T11:54:18;10.00;99.00
41756;DHT22;27435;48.480;9.258;2023-03-14T11:57:16;10.00;99.00
41756;DHT22;27435;48.480;9.258;2023-03-14T12:13:03;10.50;99.00
41756;DHT22;27435;48.480;9.258;2023-03-14T12:15:29;10.50;99.00
41756;DHT22;27435;48.480;9.258;2023-03-14T12:17:55;10.30;99.00
41756;DHT22;27435;48.480;9.258;2023-03-14T12:20:25;10.30;99.00
41756;DHT22;27435;48.480;9.258;2023-03-14T12:22:53;10.30;99.00
41756;DHT22;27435;48.480;9.258;2023-03-14T12:25:28;9.90;99.00
41756;DHT22;27435;48.480;9.258;2023-03-14T12:30:30;9.40;99.00
41756;DHT22;27435;48.480;9.258;2023-03-14T12:35:46;8.30;99.00
41756;DHT22;27435;48.480;9.258;2023-03-14T12:41:14;7.90;99.00
41756;DHT22;27435;48.480;9.258;2023-03-14T12:43:40;7.70;99.00
41756;DHT22;27435;48.480;9.258;2023-03-14T12:46:19;7.80;99.00
41756;DHT22;27435;48.480;9.258;2023-03-14T12:51:41;8.10;99.00
41756;DHT22;27435;48.480;9.258;2023-03-14T12:54:23;8.50;99.00
41756;DHT22;27435;48.480;9.258;2023-03-14T12:57:06;8.50;99.00
41756;DHT22;27435;48.480;9.258;2023-03-14T13:04:47;8.90;99.00
41756;DHT22;27435;48.480;9.258;2023-03-14T13:07:30;9.10;99.00
41756;DHT22;27435;48.480;9.258;2023-03-14T13:12:56;9.20;99.00
41756;DHT22;27435;48.480;9.258;2023-03-14T13:15:44;9.00;99.00
41756;DHT22;27435;48.480;9.258;2023-03-14T13:19:02;8.90;99.00
41756;DHT22;27435;48.480;9.258;2023-03-14T13:21:17;8.70;99.00
41756;DHT22;27435;48.480;9.258;2023-03-14T13:24:21;8.50;91.30
41756;DHT22;27435;48.480;9.258;2023-03-14T13:26:47;8.30;92.70
41756;DHT22;27435;48.480;9.258;2023-03-14T13:31:48;8.50;89.80
41756;DHT22;27435;48.480;9.258;2023-03-14T13:34:14;8.30;91.00
41756;DHT22;27435;48.480;9.258;2023-03-14T13:36:39;8.40;91.30
41756;DHT22;27435;48.480;9.258;2023-03-14T13:39:16;8.40;91.50
41756;DHT22;27435;48.480;9.258;2023-03-14T13:41:42;8.40;91.70
41756;DHT22;27435;48.480;9.258;2023-03-14T13:44:14;8.30;87.30
41756;DHT22;27435;48.480;9.258;2023-03-14T13:46:41;8.20;83.70
41756;DHT22;27435;48.480;9.258;2023-03-14T13:49:10;8.10;83.20
41756;DHT22;27435;48.480;9.258;2023-03-14T13:51:38;8.10;82.60
41756;DHT22;27435;48.480;9.258;2023-03-14T13:54:22;7.90;82.30
41756;DHT22;27435;48.480;9.258;2023-03-14T13:56:49;7.90;83.00
41756;DHT22;27435;48.480;9.258;2023-03-14T13:59:26;7.90;82.50
41756;DHT22;27435;48.480;9.258;2023-03-14T14:01:53;7.90;82.80
41756;DHT22;27435;48.480;9.258;2023-03-14T14:04:22;7.90;82.70
41756;DHT22;27435;48.480;9.258;2023-03-14T14:07:07;7.70;82.80
41756;DHT22;27435;48.480;9.258;2023-03-14T14:09:41;7.60;83.20
41756;DHT22;27435;48.480;9.258;2023-03-14T14:14:40;7.60;82.50
41756;DHT22;27435;48.480;9.258;2023-03-14T14:17:13;7.70;82.70
41756;DHT22;27435;48.480;9.258;2023-03-14T14:19:40;7.90;82.60
41756;DHT22;27435;48.480;9.258;2023-03-14T14:22:08;8.20;81.90
41756;DHT22;27435;48.480;9.258;2023-03-14T14:24:36;8.30;80.80
41756;DHT22;27435;48.480;9.258;2023-03-14T14:27:14;8.40;81.00
41756;DHT22;27435;48.480;9.258;2023-03-14T14:29:43;8.30;81.20
41756;DHT22;27435;48.480;9.258;2023-03-14T14:32:14;8.30;81.80
41756;DHT22;27435;48.480;9.258;2023-03-14T14:34:45;8.20;81.80
41756;DHT22;27435;48.480;9.258;2023-03-14T14:37:44;8.10;82.10
41756;DHT22;27435;48.480;9.258;2023-03-14T14:40:22;8.00;82.50
41756;DHT22;27435;48.480;9.258;2023-03-14T14:42:49;8.10;82.50
41756;DHT22;27435;48.480;9.258;2023-03-14T14:45:34;8.10;82.50
41756;DHT22;27435;48.480;9.258;2023-03-14T14:48:10;8.10;82.40
41756;DHT22;27435;48.480;9.258;2023-03-14T14:50:39;8.10;81.90
41756;DHT22;27435;48.480;9.258;2023-03-14T14:53:26;8.10;82.90
41756;DHT22;27435;48.480;9.258;2023-03-14T14:55:54;8.10;82.70
41756;DHT22;27435;48.480;9.258;2023-03-14T14:58:33;8.10;83.10
41756;DHT22;27435;48.480;9.258;2023-03-14T15:01:05;8.20;82.30
41756;DHT22;27435;48.480;9.258;2023-03-14T15:03:34;8.10;81.40
41756;DHT22;27435;48.480;9.258;2023-03-14T15:06:01;8.00;79.70
41756;DHT22;27435;48.480;9.258;2023-03-14T15:08:27;8.10;79.40
41756;DHT22;27435;48.480;9.258;2023-03-14T15:10:54;8.30;79.20
41756;DHT22;27435;48.480;9.258;2023-03-14T15:13:19;8.40;78.20
41756;DHT22;27435;48.480;9.258;2023-03-14T15:15:45;8.30;79.60
41756;DHT22;27435;48.480;9.258;2023-03-14T15:18:18;8.20;78.00
41756;DHT22;27435;48.480;9.258;2023-03-14T15:20:45;8.20;78.80
41756;DHT22;27435;48.480;9.258;2023-03-14T15:23:13;8.20;78.90
41756;DHT22;27435;48.480;9.258;2023-03-14T15:25:39;8.20;78.60
41756;DHT22;27435;48.480;9.258;2023-03-14T15:28:18;8.50;76.70
41756;DHT22;27435;48.480;9.258;2023-03-14T15:30:46;8.30;75.40
41756;DHT22;27435;48.480;9.258;2023-03-14T15:36:35;8.10;74.50
41756;DHT22;27435;48.480;9.258;2023-03-14T15:39:02;8.20;73.50
41756;DHT22;27435;48.480;9.258;2023-03-14T15:41:28;8.20;73.90
41756;DHT22;27435;48.480;9.258;2023-03-14T15:43:54;8.30;72.50
41756;DHT22;27435;48.480;9.258;2023-03-14T15:46:20;8.30;72.80
41756;DHT22;27435;48.480;9.258;2023-03-14T15:48:48;8.30;72.70
41756;DHT22;27435;48.480;9.258;2023-03-14T15:51:14;8.30;73.20
41756;DHT22;27435;48.480;9.258;2023-03-14T15:53:40;8.30;73.50
41756;DHT22;27435;48.480;9.258;2023-03-14T15:56:07;8.90;73.80
41756;DHT22;27435;48.480;9.258;2023-03-14T15:58:36;9.20;72.30
41756;DHT22;27435;48.480;9.258;2023-03-14T16:01:05;9.10;72.70
41756;DHT22;27435;48.480;9.258;2023-03-14T16:03:34;8.70;73.60
41756;DHT22;27435;48.480;9.258;2023-03-14T16:06:00;8.50;75.00
41756;DHT22;27435;48.480;9.258;2023-03-14T16:08:26;8.30;75.70
41756;DHT22;27435;48.480;9.258;2023-03-14T16:10:55;8.10;75.80
41756;DHT22;27435;48.480;9.258;2023-03-14T16:13:21;8.00;76.70
41756;DHT22;27435;48.480;9.258;2023-03-14T16:15:57;8.00;77.10
41756;DHT22;27435;48.480;9.258;2023-03-14T16:18:23;8.00;77.60
41756;DHT22;27435;48.480;9.258;2023-03-14T16:21:00;7.90;77.40
41756;DHT22;27435;48.480;9.258;2023-03-14T16:23:27;7.80;77.70
41756;DHT22;27435;48.480;9.258;2023-03-14T16:25:54;7.80;77.40
41756;DHT22;27435;48.480;9.258;2023-03-14T16:28:20;7.90;77.90
41756;DHT22;27435;48.480;9.258;2023-03-14T16:30:45;8.00;77.80
41756;DHT22;27435;48.480;9.258;2023-03-14T16:33:12;8.00;77.10
41756;DHT22;27435;48.480;9.258;2023-03-14T16:35:39;7.90;77.50
41756;DHT22;27435;48.480;9.258;2023-03-14T16:38:04;7.70;77.30
41756;DHT22;27435;48.480;9.258;2023-03-14T16:40:30;7.80;77.90
41756;DHT22;27435;48.480;9.258;2023-03-14T16:42:56;7.70;77.30
41756;DHT22;27435;48.480;9.258;2023-03-14T16:45:22;7.60;77.60
41756;DHT22;27435;48.480;9.258;2023-03-14T16:47:47;7.50;78.00
41756;DHT22;27435;48.480;9.258;2023-03-14T16:50:13;7.50;78.50
41756;DHT22;27435;48.480;9.258;2023-03-14T16:52:39;7.60;78.10
41756;DHT22;27435;48.480;9.258;2023-03-14T16:55:05;7.50;78.20
41756;DHT22;27435;48.480;9.258;2023-03-14T16:57:32;7.50;78.80
41756;DHT22;27435;48.480;9.258;2023-03-14T16:59:58;7.40;79.10
41756;DHT22;27435;48.480;9.258;2023-03-14T17:02:23;7.40;79.40
41756;DHT22;27435;48.480;9.258;2023-03-14T17:04:49;7.50;79.40
41756;DHT22;27435;48.480;9.258;2023-03-14T17:07:15;7.30;79.40
41756;DHT22;27435;48.480;9.258;2023-03-14T17:09:41;7.30;80.00
41756;DHT22;27435;48.480;9.258;2023-03-14T17:12:07;7.30;80.20
41756;DHT22;27435;48.480;9.258;2023-03-14T17:14:32;7.10;80.30